Terminal Aerodrome Forecast
Issued by NWS Jackson, MS

Home | Current Version | Previous Version | Text Only | Print | Product List | Glossary On
Versions: 1 2 3 4 5 6 7 8 9 10 11 12 13 14 15 16 17 18 19 20 21
000
FTUS44 KMEG 232330
TAFTUP
TAF
KTUP 232330Z 2400/2424 16005KT P6SM VCTS SCT015CB
     FM240700 19007KT P6SM VCSH OVC009
     FM241900 21012G19KT P6SM VCSH OVC015=

USA.gov is the U.S. government's official web portal to all federal, state and local government web resources and services.